createdAt,value
2022-10-29T00:01:08.590Z,11.20
2022-10-29T00:03:38.636Z,11.20
2022-10-29T00:06:12.665Z,11.20
2022-10-29T00:08:42.653Z,11.10
2022-10-29T00:11:13.714Z,11.10
2022-10-29T00:13:41.472Z,11.10
2022-10-29T00:16:13.368Z,11.10
2022-10-29T00:18:45.941Z,11.10
2022-10-29T00:21:15.577Z,11.20
2022-10-29T00:23:42.543Z,11.20
2022-10-29T00:26:09.573Z,11.20
2022-10-29T00:28:38.716Z,11.20
2022-10-29T00:31:13.184Z,11.20
2022-10-29T00:33:44.876Z,11.10
2022-10-29T00:36:15.656Z,11.10
2022-10-29T00:38:42.480Z,11.10
2022-10-29T00:41:15.367Z,11.10
2022-10-29T00:43:48.883Z,11.10
2022-10-29T00:46:31.761Z,11.10
2022-10-29T00:49:02.460Z,11.10
2022-10-29T00:51:33.478Z,11.20
2022-10-29T00:54:09.144Z,11.20
2022-10-29T00:56:41.512Z,11.10
2022-10-29T00:59:09.306Z,11.10
2022-10-29T01:01:37.638Z,11.00
2022-10-29T01:04:04.777Z,11.00
2022-10-29T01:06:32.131Z,10.90
2022-10-29T01:09:03.325Z,10.90
2022-10-29T01:11:45.170Z,10.90
2022-10-29T01:14:29.934Z,11.00
2022-10-29T01:17:38.741Z,11.00
2022-10-29T01:20:14.523Z,10.90
2022-10-29T01:22:49.890Z,10.90
2022-10-29T01:25:24.657Z,10.80
2022-10-29T01:27:59.923Z,10.80
2022-10-29T01:31:04.225Z,10.80
2022-10-29T01:33:48.150Z,10.90
2022-10-29T01:36:16.957Z,10.80
2022-10-29T01:39:01.406Z,10.80
2022-10-29T01:41:56.390Z,10.80
2022-10-29T01:44:33.839Z,10.90
2022-10-29T01:47:05.583Z,11.00
2022-10-29T01:49:44.424Z,11.00
2022-10-29T01:52:15.173Z,11.00
2022-10-29T01:54:43.747Z,11.10
2022-10-29T01:57:27.639Z,11.10
2022-10-29T01:59:57.593Z,11.10
2022-10-29T02:02:56.679Z,11.10
2022-10-29T02:05:38.192Z,11.20
2022-10-29T02:08:13.923Z,11.30
2022-10-29T02:10:49.612Z,11.30
2022-10-29T02:13:19.272Z,11.20
2022-10-29T02:15:52.837Z,11.30
2022-10-29T02:18:19.851Z,11.30
2022-10-29T02:20:46.894Z,11.30
2022-10-29T02:23:15.951Z,11.30
2022-10-29T02:25:45.455Z,11.30
2022-10-29T02:28:14.676Z,11.30
2022-10-29T02:30:41.438Z,11.30
2022-10-29T02:33:08.141Z,11.30
2022-10-29T02:35:37.068Z,11.20
2022-10-29T02:38:06.231Z,11.20
2022-10-29T02:40:32.948Z,11.20
2022-10-29T02:42:59.766Z,11.10
2022-10-29T02:45:28.752Z,11.00
2022-10-29T02:47:57.991Z,11.10
2022-10-29T02:50:24.884Z,11.10
2022-10-29T02:52:51.557Z,11.20
2022-10-29T02:55:18.295Z,11.20
2022-10-29T02:57:45.616Z,11.20
2022-10-29T03:00:13.331Z,11.20
2022-10-29T03:02:40.382Z,11.20
2022-10-29T03:05:07.828Z,11.30
2022-10-29T03:07:38.368Z,11.30
2022-10-29T03:10:09.231Z,11.30
2022-10-29T03:12:38.431Z,11.30
2022-10-29T03:15:05.605Z,11.30
2022-10-29T03:17:34.749Z,11.30
2022-10-29T03:20:01.515Z,11.30
2022-10-29T03:22:28.194Z,11.30
2022-10-29T03:24:54.890Z,11.30
2022-10-29T03:27:21.612Z,11.40
2022-10-29T03:29:48.320Z,11.40
2022-10-29T03:32:15.045Z,11.40
2022-10-29T03:34:41.725Z,11.40
2022-10-29T03:37:13.111Z,11.40
2022-10-29T03:39:39.788Z,11.40
2022-10-29T03:42:06.488Z,11.40
2022-10-29T03:44:33.272Z,11.40
2022-10-29T03:47:02.513Z,11.40
2022-10-29T03:49:29.187Z,11.40
2022-10-29T03:52:00.363Z,11.40
2022-10-29T03:54:27.085Z,11.40
2022-10-29T03:56:56.007Z,11.40
2022-10-29T03:59:22.729Z,11.50
2022-10-29T04:01:51.792Z,11.50
2022-10-29T04:04:18.626Z,11.40
2022-10-29T04:06:45.340Z,11.50
2022-10-29T04:09:14.393Z,11.50
2022-10-29T04:11:43.232Z,11.50
2022-10-29T04:14:12.226Z,11.50
2022-10-29T04:16:41.075Z,11.50
2022-10-29T04:19:07.818Z,11.50
2022-10-29T04:29:59.641Z,11.50
2022-10-29T04:32:26.389Z,11.50
2022-10-29T04:34:55.580Z,11.60
2022-10-29T04:37:22.218Z,11.60
2022-10-29T04:39:53.786Z,11.50
2022-10-29T04:42:22.721Z,11.50
2022-10-29T04:44:49.477Z,11.60
2022-10-29T04:47:16.270Z,11.60
2022-10-29T04:49:45.179Z,11.60
2022-10-29T04:52:13.996Z,11.60
2022-10-29T04:54:40.637Z,11.60
2022-10-29T04:57:09.610Z,11.60
2022-10-29T04:59:36.296Z,11.50
2022-10-29T05:02:07.601Z,11.50
2022-10-29T05:04:34.275Z,11.50
2022-10-29T05:07:03.457Z,11.60
2022-10-29T05:09:30.157Z,11.60
2022-10-29T05:11:56.798Z,11.50
2022-10-29T05:14:23.438Z,11.60
2022-10-29T05:16:50.096Z,11.60
2022-10-29T05:19:19.211Z,11.60
2022-10-29T05:21:45.894Z,11.60
2022-10-29T05:24:12.586Z,11.60
2022-10-29T05:26:43.873Z,11.50
2022-10-29T05:29:10.523Z,11.60
2022-10-29T05:31:37.217Z,11.50
2022-10-29T05:34:03.874Z,11.50
2022-10-29T05:36:30.590Z,11.40
2022-10-29T05:38:57.322Z,11.40
2022-10-29T05:41:24.015Z,11.40
2022-10-29T05:43:51.098Z,11.40
2022-10-29T05:46:20.114Z,11.40
2022-10-29T05:48:49.074Z,11.40
2022-10-29T05:51:20.283Z,11.30
2022-10-29T05:53:50.056Z,11.30
2022-10-29T05:56:21.704Z,11.20
2022-10-29T05:58:53.816Z,11.20
2022-10-29T06:01:20.620Z,11.20
2022-10-29T06:03:47.491Z,11.10
2022-10-29T06:06:14.321Z,11.10
2022-10-29T06:08:41.154Z,11.10
2022-10-29T06:11:07.854Z,11.00
2022-10-29T06:13:36.741Z,11.10
2022-10-29T06:16:03.597Z,11.00
2022-10-29T06:18:32.977Z,11.00
2022-10-29T06:21:00.573Z,10.90
2022-10-29T06:23:28.376Z,10.90
2022-10-29T06:26:01.765Z,10.90
2022-10-29T06:28:33.675Z,11.00
2022-10-29T06:31:03.787Z,11.10
2022-10-29T06:33:32.608Z,11.00
2022-10-29T06:36:00.797Z,11.00
2022-10-29T06:38:27.567Z,10.90
2022-10-29T06:40:56.592Z,11.00
2022-10-29T06:43:23.224Z,10.90
2022-10-29T06:45:50.147Z,11.00
2022-10-29T06:48:21.754Z,11.00
2022-10-29T06:50:51.882Z,11.00
2022-10-29T06:53:21.321Z,11.10
2022-10-29T06:55:48.082Z,11.10
2022-10-29T06:58:17.025Z,11.10
2022-10-29T07:00:44.754Z,11.10
2022-10-29T07:03:13.738Z,11.20
2022-10-29T07:05:40.425Z,11.20
2022-10-29T07:08:09.814Z,11.30
2022-10-29T07:10:36.928Z,11.30
2022-10-29T07:13:03.807Z,11.30
2022-10-29T07:15:35.377Z,11.40
2022-10-29T07:18:04.366Z,11.40
2022-10-29T07:20:33.609Z,11.50
2022-10-29T07:23:01.324Z,11.60
2022-10-29T07:25:29.192Z,11.70
2022-10-29T07:28:04.707Z,11.70
2022-10-29T07:30:36.594Z,11.80
2022-10-29T07:33:05.847Z,11.90
2022-10-29T07:35:35.496Z,11.90
2022-10-29T07:38:08.803Z,11.90
2022-10-29T07:40:37.902Z,12.00
2022-10-29T07:43:06.780Z,12.00
2022-10-29T07:45:35.956Z,12.10
2022-10-29T07:48:04.984Z,12.10
2022-10-29T07:50:32.292Z,12.20
2022-10-29T07:53:03.774Z,12.20
2022-10-29T07:58:05.364Z,12.40
2022-10-29T08:00:37.099Z,12.50
2022-10-29T08:03:08.573Z,12.60
2022-10-29T08:05:38.055Z,12.70
2022-10-29T08:08:07.777Z,12.70
2022-10-29T08:10:37.817Z,12.80
2022-10-29T08:13:06.290Z,12.90
2022-10-29T08:15:34.850Z,13.00
2022-10-29T08:18:02.060Z,13.20
2022-10-29T08:20:29.873Z,13.40
2022-10-29T08:23:01.986Z,13.60
2022-10-29T08:25:29.513Z,13.90
2022-10-29T08:28:01.216Z,14.10
2022-10-29T08:30:28.793Z,14.30
2022-10-29T08:32:55.857Z,14.50
2022-10-29T08:35:22.961Z,14.70
2022-10-29T08:37:49.735Z,14.80
2022-10-29T08:40:46.233Z,15.00
2022-10-29T08:43:21.841Z,15.10
2022-10-29T08:45:51.340Z,15.30
2022-10-29T08:48:40.633Z,15.40
2022-10-29T08:51:25.827Z,15.50
2022-10-29T08:56:58.504Z,15.70
2022-10-29T08:59:31.297Z,15.70
2022-10-29T09:01:58.309Z,15.80
2022-10-29T09:04:28.929Z,15.90
2022-10-29T09:07:20.370Z,16.00
2022-10-29T09:09:59.096Z,16.00
2022-10-29T09:12:52.394Z,16.10
2022-10-29T09:15:28.105Z,16.20
2022-10-29T09:18:31.784Z,16.30
2022-10-29T09:21:35.042Z,16.40
2022-10-29T09:24:05.337Z,16.40
2022-10-29T09:26:37.794Z,16.50
2022-10-29T09:29:14.247Z,16.60
2022-10-29T09:31:46.748Z,16.60
2022-10-29T09:34:18.973Z,16.70
2022-10-29T09:36:47.641Z,16.80
2022-10-29T09:39:24.366Z,16.90
2022-10-29T09:41:53.603Z,17.00
2022-10-29T09:44:28.039Z,17.10
2022-10-29T09:47:23.299Z,17.10
2022-10-29T09:49:57.184Z,17.00
2022-10-29T09:52:34.125Z,16.90
2022-10-29T09:55:03.085Z,16.80
2022-10-29T09:57:31.700Z,16.70
2022-10-29T10:00:04.658Z,16.70
2022-10-29T10:02:31.362Z,16.70
2022-10-29T10:05:26.125Z,16.70
2022-10-29T10:08:09.400Z,16.70
2022-10-29T10:10:49.770Z,16.70
2022-10-29T10:13:23.157Z,16.80
2022-10-29T10:15:56.542Z,16.80
2022-10-29T10:18:26.348Z,16.90
2022-10-29T10:21:10.505Z,17.00
2022-10-29T10:23:42.914Z,17.00
2022-10-29T10:26:35.009Z,17.10
2022-10-29T10:29:32.415Z,17.10
2022-10-29T10:31:59.043Z,17.20
2022-10-29T10:34:35.066Z,17.20
2022-10-29T10:37:07.586Z,17.30
2022-10-29T10:39:42.805Z,17.30
2022-10-29T10:42:20.230Z,17.40
2022-10-29T10:45:16.804Z,17.40
2022-10-29T10:47:51.104Z,17.50
2022-10-29T10:50:32.802Z,17.60
2022-10-29T10:53:05.140Z,17.60
2022-10-29T10:55:35.515Z,17.60
2022-10-29T10:58:23.633Z,17.70
2022-10-29T11:01:07.501Z,17.80
2022-10-29T11:03:48.683Z,17.90
2022-10-29T11:06:24.940Z,17.90
2022-10-29T11:09:14.385Z,18.00
2022-10-29T11:12:09.344Z,18.00
2022-10-29T11:14:44.850Z,18.10
2022-10-29T11:17:32.424Z,18.20
2022-10-29T11:20:05.996Z,18.20
2022-10-29T11:23:03.937Z,18.30
2022-10-29T11:25:41.410Z,18.40
2022-10-29T11:28:38.821Z,18.40
2022-10-29T11:31:26.668Z,18.40
2022-10-29T11:34:01.340Z,18.50
2022-10-29T11:36:34.455Z,18.60
2022-10-29T11:39:58.131Z,18.70
2022-10-29T11:42:27.340Z,18.80
2022-10-29T11:45:11.844Z,18.80
2022-10-29T11:47:58.108Z,18.90
2022-10-29T11:50:43.229Z,19.00
2022-10-29T11:53:54.500Z,19.00
2022-10-29T11:57:00.168Z,19.20
2022-10-29T11:59:45.648Z,19.30
2022-10-29T12:02:29.761Z,19.40
2022-10-29T12:05:06.515Z,19.50
2022-10-29T12:08:20.967Z,19.50
2022-10-29T12:10:56.814Z,19.40
2022-10-29T12:13:29.027Z,19.50
2022-10-29T12:16:13.819Z,19.60
2022-10-29T12:19:17.873Z,19.60
2022-10-29T12:21:50.697Z,19.70
2022-10-29T12:24:36.015Z,19.70
2022-10-29T12:27:17.978Z,19.70
2022-10-29T12:29:54.598Z,19.80
2022-10-29T12:32:28.490Z,20.00
2022-10-29T12:35:28.779Z,20.10
2022-10-29T12:38:16.852Z,20.20
2022-10-29T12:40:45.803Z,20.20
2022-10-29T12:43:29.102Z,20.30
2022-10-29T12:49:12.181Z,20.30
2022-10-29T12:52:12.689Z,20.40
2022-10-29T12:54:42.286Z,20.50
2022-10-29T12:57:33.363Z,20.60
2022-10-29T13:00:33.681Z,20.70
2022-10-29T13:03:03.557Z,20.90
2022-10-29T13:05:39.739Z,21.10
2022-10-29T13:08:06.438Z,21.10
2022-10-29T13:10:33.075Z,21.10
2022-10-29T13:12:59.744Z,21.10
2022-10-29T13:15:35.618Z,21.10
2022-10-29T13:18:26.833Z,21.20
2022-10-29T13:20:55.163Z,21.30
2022-10-29T13:23:21.833Z,21.20
2022-10-29T13:25:57.540Z,21.20
2022-10-29T13:28:24.160Z,21.20
2022-10-29T13:31:14.283Z,21.10
2022-10-29T13:33:40.903Z,21.10
2022-10-29T13:36:16.447Z,21.00
2022-10-29T13:39:04.382Z,21.00
2022-10-29T13:41:42.610Z,21.00
2022-10-29T13:44:12.178Z,21.00
2022-10-29T13:46:47.779Z,21.00
2022-10-29T13:49:31.413Z,20.90
2022-10-29T13:52:05.183Z,20.90
2022-10-29T13:54:40.950Z,20.90
2022-10-29T13:57:25.679Z,20.80
2022-10-29T14:00:00.819Z,20.80
2022-10-29T14:02:33.507Z,20.80
2022-10-29T14:05:13.304Z,20.80
2022-10-29T14:07:57.607Z,20.70
2022-10-29T14:10:34.229Z,20.70
2022-10-29T14:13:25.664Z,20.70
2022-10-29T14:16:09.893Z,20.70
2022-10-29T14:18:40.696Z,20.60
2022-10-29T14:21:21.916Z,20.70
2022-10-29T14:24:02.503Z,20.60
2022-10-29T14:26:31.605Z,20.60
2022-10-29T14:29:23.250Z,20.50
2022-10-29T14:32:20.061Z,20.50
2022-10-29T14:34:53.042Z,20.40
2022-10-29T14:37:32.408Z,20.30
2022-10-29T14:40:03.793Z,20.30
2022-10-29T14:42:40.497Z,20.20
2022-10-29T14:45:23.022Z,20.20
2022-10-29T14:47:54.922Z,20.20
2022-10-29T14:50:25.451Z,20.10
2022-10-29T14:53:00.917Z,20.00
2022-10-29T14:55:36.788Z,20.00
2022-10-29T14:58:21.833Z,19.90
2022-10-29T15:01:03.463Z,19.90
2022-10-29T15:03:34.811Z,19.90
2022-10-29T15:06:17.227Z,19.80
2022-10-29T15:08:46.090Z,19.70
2022-10-29T15:11:39.184Z,19.60
2022-10-29T15:14:31.000Z,19.60
2022-10-29T15:16:59.226Z,19.50
2022-10-29T15:19:26.469Z,19.40
2022-10-29T15:21:55.696Z,19.30
2022-10-29T15:24:24.060Z,19.20
2022-10-29T15:26:57.596Z,19.00
2022-10-29T15:29:33.501Z,19.00
2022-10-29T15:32:03.725Z,18.80
2022-10-29T15:34:37.463Z,18.70
2022-10-29T15:37:19.409Z,18.60
2022-10-29T15:40:12.112Z,18.50
2022-10-29T15:42:42.132Z,18.40
2022-10-29T15:45:08.868Z,18.30
2022-10-29T15:47:41.239Z,18.10
2022-10-29T15:50:14.359Z,18.00
2022-10-29T15:52:44.138Z,17.80
2022-10-29T15:55:19.770Z,17.70
2022-10-29T15:57:51.694Z,17.50
2022-10-29T16:00:22.482Z,17.40
2022-10-29T16:02:51.769Z,17.40
2022-10-29T16:05:18.957Z,17.40
2022-10-29T16:07:47.622Z,17.20
2022-10-29T16:10:22.783Z,17.20
2022-10-29T16:12:50.060Z,17.10
2022-10-29T16:15:19.704Z,16.90
2022-10-29T16:17:48.696Z,16.80
2022-10-29T16:20:18.025Z,16.70
2022-10-29T16:22:46.922Z,16.60
2022-10-29T16:25:29.083Z,16.60
2022-10-29T16:27:56.182Z,16.50
2022-10-29T16:30:23.780Z,16.40
2022-10-29T16:32:52.412Z,16.40
2022-10-29T16:35:24.163Z,16.30
2022-10-29T16:37:54.454Z,16.30
2022-10-29T16:40:23.994Z,16.30
2022-10-29T16:42:50.888Z,16.30
2022-10-29T16:45:29.794Z,16.30
2022-10-29T16:47:57.423Z,16.20
2022-10-29T16:50:27.595Z,16.20
2022-10-29T16:53:00.977Z,16.10
2022-10-29T16:55:31.335Z,16.10
2022-10-29T16:57:58.819Z,16.00
2022-10-29T17:00:26.238Z,15.90
2022-10-29T17:02:53.143Z,15.80
2022-10-29T17:05:19.917Z,15.80
2022-10-29T17:07:46.571Z,15.70
2022-10-29T17:10:13.240Z,15.70
2022-10-29T17:12:42.180Z,15.70
2022-10-29T17:15:09.326Z,15.70
2022-10-29T17:17:39.953Z,15.70
2022-10-29T17:20:09.837Z,15.60
2022-10-29T17:22:36.748Z,15.60
2022-10-29T17:25:03.514Z,15.50
2022-10-29T17:27:30.255Z,15.50
2022-10-29T17:29:59.379Z,15.50
2022-10-29T17:32:26.275Z,15.40
2022-10-29T17:34:52.971Z,15.30
2022-10-29T17:37:19.673Z,15.30
2022-10-29T17:39:49.169Z,15.30
2022-10-29T17:42:15.992Z,15.30
2022-10-29T17:44:42.704Z,15.30
2022-10-29T17:47:17.931Z,15.30
2022-10-29T17:49:46.831Z,15.20
2022-10-29T17:52:13.567Z,15.20
2022-10-29T17:54:42.701Z,15.20
2022-10-29T17:57:14.021Z,15.10
2022-10-29T17:59:40.701Z,15.00
2022-10-29T18:02:10.828Z,15.00
2022-10-29T18:04:37.605Z,15.00
2022-10-29T18:07:04.356Z,15.00
2022-10-29T18:09:31.240Z,14.90
2022-10-29T18:11:57.956Z,14.90
2022-10-29T18:14:24.637Z,14.90
2022-10-29T18:16:53.704Z,14.80
2022-10-29T18:19:20.483Z,14.80
2022-10-29T18:21:49.533Z,14.80
2022-10-29T18:24:16.310Z,14.80
2022-10-29T18:26:43.083Z,14.80
2022-10-29T18:29:14.451Z,14.70
2022-10-29T18:31:46.777Z,14.60
2022-10-29T18:34:15.175Z,14.60
2022-10-29T18:36:42.995Z,14.60
2022-10-29T18:39:10.200Z,14.60
2022-10-29T18:41:41.604Z,14.60
2022-10-29T18:44:10.414Z,14.60
2022-10-29T18:46:37.196Z,14.60
2022-10-29T18:49:09.092Z,14.50
2022-10-29T18:51:35.732Z,14.50
2022-10-29T18:54:04.585Z,14.40
2022-10-29T18:56:33.810Z,14.40
2022-10-29T18:59:05.302Z,14.30
2022-10-29T19:01:34.468Z,14.30
2022-10-29T19:04:07.070Z,14.30
2022-10-29T19:06:36.303Z,14.30
2022-10-29T19:09:05.721Z,14.30
2022-10-29T19:11:35.333Z,14.20
2022-10-29T19:14:07.896Z,14.20
2022-10-29T19:16:39.247Z,14.20
2022-10-29T19:19:12.543Z,14.10
2022-10-29T19:21:43.143Z,14.00
2022-10-29T19:24:13.836Z,14.00
2022-10-29T19:26:43.564Z,13.90
2022-10-29T19:29:10.785Z,13.90
2022-10-29T19:31:40.758Z,13.80
2022-10-29T19:34:10.734Z,13.80
2022-10-29T19:36:39.898Z,13.90
2022-10-29T19:39:06.755Z,13.80
2022-10-29T19:41:33.595Z,13.80
2022-10-29T19:44:01.541Z,13.70
2022-10-29T19:46:28.606Z,13.70
2022-10-29T19:48:59.149Z,13.60
2022-10-29T19:51:26.360Z,13.60
2022-10-29T19:53:53.110Z,13.50
2022-10-29T19:56:20.895Z,13.50
2022-10-29T19:58:47.963Z,13.50
2022-10-29T20:01:19.563Z,13.50
2022-10-29T20:03:49.215Z,13.50
2022-10-29T20:06:18.337Z,13.50
2022-10-29T20:08:47.171Z,13.50
2022-10-29T20:11:16.128Z,13.50
2022-10-29T20:13:47.524Z,13.50
2022-10-29T20:16:20.993Z,13.60
2022-10-29T20:18:48.707Z,13.60
2022-10-29T20:21:18.142Z,13.60
2022-10-29T20:23:49.609Z,13.60
2022-10-29T20:26:18.583Z,13.60
2022-10-29T20:28:52.435Z,13.60
2022-10-29T20:31:23.382Z,13.60
2022-10-29T20:33:53.941Z,13.60
2022-10-29T20:36:26.851Z,13.60
2022-10-29T20:38:54.060Z,13.60
2022-10-29T20:41:21.743Z,13.60
2022-10-29T20:43:56.436Z,13.50
2022-10-29T20:46:26.270Z,13.50
2022-10-29T20:48:58.117Z,13.40
2022-10-29T20:51:27.413Z,13.40
2022-10-29T20:53:54.707Z,13.40
2022-10-29T20:56:23.642Z,13.30
2022-10-29T20:58:52.866Z,13.30
2022-10-29T21:01:25.016Z,13.20
2022-10-29T21:03:51.927Z,13.20
2022-10-29T21:06:21.619Z,13.20
2022-10-29T21:08:52.313Z,13.10
2022-10-29T21:11:20.524Z,13.10
2022-10-29T21:13:49.747Z,13.00
2022-10-29T21:16:23.625Z,13.00
2022-10-29T21:18:54.186Z,13.00
2022-10-29T21:21:21.326Z,13.00
2022-10-29T21:23:48.433Z,13.00
2022-10-29T21:26:24.020Z,12.90
2022-10-29T21:28:52.209Z,12.90
2022-10-29T21:31:19.895Z,12.90
2022-10-29T21:33:51.954Z,12.90
2022-10-29T21:36:21.764Z,12.90
2022-10-29T21:38:50.835Z,12.90
2022-10-29T21:41:18.398Z,12.80
2022-10-29T21:43:45.615Z,12.80
2022-10-29T21:46:14.687Z,12.70
2022-10-29T21:48:43.529Z,12.70
2022-10-29T21:51:15.135Z,12.60
2022-10-29T21:53:41.890Z,12.60
2022-10-29T21:56:11.779Z,12.60
2022-10-29T21:58:38.619Z,12.60
2022-10-29T22:01:14.328Z,12.60
2022-10-29T22:03:45.475Z,12.60
2022-10-29T22:06:18.543Z,12.50
2022-10-29T22:08:52.572Z,12.40
2022-10-29T22:11:19.329Z,12.40
2022-10-29T22:13:48.479Z,12.40
2022-10-29T22:16:15.608Z,12.40
2022-10-29T22:18:42.542Z,12.30
2022-10-29T22:21:14.015Z,12.30
2022-10-29T22:23:46.335Z,12.20
2022-10-29T22:26:14.683Z,12.20
2022-10-29T22:28:41.482Z,12.20
2022-10-29T22:31:10.999Z,12.10
2022-10-29T22:33:37.899Z,12.20
2022-10-29T22:36:18.252Z,12.20
2022-10-29T22:38:51.730Z,12.10
2022-10-29T22:41:21.015Z,12.10
2022-10-29T22:43:47.716Z,12.10
2022-10-29T22:46:18.403Z,12.10
2022-10-29T22:48:45.936Z,12.00
2022-10-29T22:51:12.638Z,12.00
2022-10-29T22:53:42.049Z,12.00
2022-10-29T22:56:13.751Z,12.00
2022-10-29T22:58:42.638Z,11.90
2022-10-29T23:01:13.909Z,11.90
2022-10-29T23:03:45.993Z,11.90
2022-10-29T23:06:18.492Z,11.80
2022-10-29T23:08:46.216Z,11.90
2022-10-29T23:11:19.179Z,11.80
2022-10-29T23:13:52.694Z,11.80
2022-10-29T23:16:22.011Z,11.70
2022-10-29T23:18:55.032Z,11.80
2022-10-29T23:21:24.286Z,11.80
2022-10-29T23:23:51.265Z,11.80
2022-10-29T23:26:21.699Z,11.80
2022-10-29T23:28:50.747Z,11.70
2022-10-29T23:31:28.071Z,11.60
2022-10-29T23:33:56.575Z,11.60
2022-10-29T23:36:25.167Z,11.60
2022-10-29T23:38:56.613Z,11.60
2022-10-29T23:41:28.917Z,11.60
2022-10-29T23:43:55.843Z,11.60
2022-10-29T23:46:27.222Z,11.60
2022-10-29T23:48:56.277Z,11.50
2022-10-29T23:51:23.103Z,11.40
2022-10-29T23:53:54.918Z,11.40
2022-10-29T23:56:24.469Z,11.40
2022-10-29T23:58:51.176Z,11.40
